Time;durP1;ratioP1;P1;durP2;ratioP2;P2;SDS_P1;SDS_P2;PMS_P1;PMS_P2;Temp;Humidity;BMP_temperature;BMP_pressure;BME280_temperature;BME280_humidity;BME280_pressure;Samples;Min_cycle;Max_cycle;Signal;HPM_P1;HPM_P2
2022/04/14 00:00:50;;;;;;;13.40;10.60;;;12.80;99.90;;;;;;4999464;28;20669;-71
2022/04/14 00:03:40;;;;;;;15.37;11.07;;;12.80;99.90;;;;;;4990531;28;22123;-71
2022/04/14 00:06:28;;;;;;;13.90;10.47;;;12.70;99.90;;;;;;5000897;28;20587;-71
2022/04/14 00:09:16;;;;;;;10.97;8.70;;;12.70;99.90;;;;;;4999127;28;20503;-71
2022/04/14 00:12:06;;;;;;;12.63;9.83;;;12.70;99.90;;;;;;4996250;28;20590;-71
2022/04/14 00:14:54;;;;;;;12.13;9.27;;;12.70;99.90;;;;;;4979304;28;20586;-71
2022/04/14 00:17:42;;;;;;;10.80;9.27;;;12.70;99.90;;;;;;4979970;28;20938;-71
2022/04/14 00:20:32;;;;;;;12.47;8.87;;;12.70;99.90;;;;;;4978126;28;20492;-71
2022/04/14 00:23:20;;;;;;;10.37;8.50;;;12.70;99.90;;;;;;4991358;28;20526;-70
2022/04/14 00:26:08;;;;;;;11.70;9.27;;;12.60;99.90;;;;;;4993706;28;20647;-70
2022/04/14 00:28:57;;;;;;;13.73;10.37;;;12.60;99.90;;;;;;5002085;28;20484;-71
2022/04/14 00:31:45;;;;;;;13.57;10.70;;;12.60;99.90;;;;;;4997641;28;20598;-71
2022/04/14 00:34:33;;;;;;;13.80;10.37;;;12.60;99.90;;;;;;4993776;28;20563;-71
2022/04/14 00:37:23;;;;;;;13.10;11.20;;;12.60;99.90;;;;;;4992704;28;20463;-71
2022/04/14 00:40:13;;;;;;;14.07;10.77;;;12.60;99.90;;;;;;4999508;28;20984;-71
2022/04/14 00:43:01;;;;;;;16.17;11.30;;;12.60;99.90;;;;;;5003816;28;20508;-70
2022/04/14 00:45:50;;;;;;;13.43;11.00;;;12.60;99.90;;;;;;5000663;28;20456;-71
2022/04/14 00:48:38;;;;;;;15.67;11.33;;;12.70;99.90;;;;;;5001311;28;21103;-71
2022/04/14 00:51:26;;;;;;;15.13;10.87;;;12.70;99.90;;;;;;4998346;28;20465;-71
2022/04/14 00:54:16;;;;;;;12.33;10.77;;;12.70;99.90;;;;;;5000202;28;20976;-71
2022/04/14 00:57:05;;;;;;;13.23;11.83;;;12.60;99.90;;;;;;4997414;28;20899;-71
2022/04/14 00:59:53;;;;;;;13.40;10.63;;;12.60;99.90;;;;;;4993875;28;20526;-71
2022/04/14 01:02:42;;;;;;;12.53;11.13;;;12.60;99.90;;;;;;4997811;28;20472;-71
2022/04/14 01:05:31;;;;;;;15.13;11.70;;;12.60;99.90;;;;;;4995888;28;20456;-70
2022/04/14 01:08:20;;;;;;;14.37;11.30;;;12.60;99.90;;;;;;5000917;28;20488;-71
2022/04/14 01:11:10;;;;;;;15.90;11.20;;;12.60;99.90;;;;;;4997451;28;20535;-70
2022/04/14 01:13:59;;;;;;;14.37;10.73;;;12.60;99.90;;;;;;4999045;28;20579;-71
2022/04/14 01:16:47;;;;;;;12.47;11.17;;;12.70;99.90;;;;;;5001669;28;20489;-71
2022/04/14 01:19:35;;;;;;;14.80;11.77;;;12.60;99.90;;;;;;4996789;28;20598;-71
2022/04/14 01:22:27;;;;;;;13.03;11.47;;;12.60;99.90;;;;;;4993352;28;20562;-70
2022/04/14 01:25:16;;;;;;;12.30;10.37;;;12.70;99.90;;;;;;4998511;28;20523;-71
2022/04/14 01:28:05;;;;;;;14.60;12.40;;;12.60;99.90;;;;;;4998986;28;20550;-71
2022/04/14 01:30:53;;;;;;;16.30;12.67;;;12.60;99.90;;;;;;5001662;28;21531;-70
2022/04/14 01:33:42;;;;;;;15.33;12.73;;;12.70;99.90;;;;;;4982954;28;20976;-71
2022/04/14 01:36:30;;;;;;;15.30;12.83;;;12.70;99.90;;;;;;4996382;28;20987;-71
2022/04/14 01:39:18;;;;;;;14.97;12.73;;;12.60;99.90;;;;;;4995009;28;20575;-70
2022/04/14 01:42:08;;;;;;;16.70;13.00;;;12.60;99.90;;;;;;4997167;28;20995;-70
2022/04/14 01:44:56;;;;;;;20.10;13.20;;;12.60;99.90;;;;;;4997509;28;20664;-71
2022/04/14 01:47:46;;;;;;;15.40;11.60;;;12.60;99.90;;;;;;4999220;28;20556;-70
2022/04/14 01:50:35;;;;;;;14.63;12.10;;;12.60;99.90;;;;;;4999378;28;20590;-71
2022/04/14 01:53:23;;;;;;;15.20;12.83;;;12.60;99.90;;;;;;4998806;28;21036;-70
2022/04/14 01:56:11;;;;;;;15.17;12.50;;;12.60;99.90;;;;;;4998817;28;20782;-70
2022/04/14 01:59:01;;;;;;;15.63;12.83;;;12.60;99.90;;;;;;5000945;28;20467;-71
2022/04/14 02:01:49;;;;;;;14.77;11.90;;;12.60;99.90;;;;;;4998122;28;20570;-71
2022/04/14 02:04:37;;;;;;;15.10;12.37;;;12.60;99.90;;;;;;4996815;28;20472;-71
2022/04/14 02:07:25;;;;;;;16.13;13.60;;;12.60;99.90;;;;;;4999970;28;20463;-71
2022/04/14 02:10:14;;;;;;;17.60;13.70;;;12.60;99.90;;;;;;5001059;28;20534;-71
2022/04/14 02:13:02;;;;;;;20.60;15.87;;;12.50;99.90;;;;;;5003074;28;20554;-71
2022/04/14 02:15:53;;;;;;;23.87;18.00;;;12.50;99.90;;;;;;4999098;28;20465;-72
2022/04/14 02:18:42;;;;;;;31.47;18.40;;;12.60;99.90;;;;;;5000954;28;20868;-71
2022/04/14 02:21:30;;;;;;;21.20;17.50;;;12.60;99.90;;;;;;4995782;28;23605;-72
2022/04/14 02:24:18;;;;;;;22.20;17.87;;;12.60;99.90;;;;;;4996333;28;20484;-72
2022/04/14 02:27:06;;;;;;;21.07;17.83;;;12.60;99.90;;;;;;5001103;28;20555;-71
2022/04/14 02:29:55;;;;;;;22.50;17.70;;;12.50;99.90;;;;;;4998980;28;20478;-72
2022/04/14 02:32:44;;;;;;;22.37;17.83;;;12.50;99.90;;;;;;4997877;28;20970;-72
2022/04/14 02:35:32;;;;;;;20.33;17.33;;;12.50;99.90;;;;;;5000515;28;20546;-71
2022/04/14 02:38:20;;;;;;;22.90;16.80;;;12.50;99.90;;;;;;4998204;28;20480;-72
2022/04/14 02:41:08;;;;;;;23.73;17.03;;;12.60;99.90;;;;;;4997872;28;20472;-71
2022/04/14 02:43:57;;;;;;;24.13;17.43;;;12.50;99.90;;;;;;5000150;28;20468;-72
2022/04/14 02:46:45;;;;;;;19.33;15.23;;;12.50;99.90;;;;;;5003034;28;20811;-71
2022/04/14 02:49:34;;;;;;;21.17;15.20;;;12.50;99.90;;;;;;4999174;28;20655;-71
2022/04/14 02:52:22;;;;;;;21.20;17.10;;;12.50;99.90;;;;;;4999420;28;20468;-71
2022/04/14 02:55:10;;;;;;;22.63;17.50;;;12.40;99.90;;;;;;4995045;28;20475;-71
2022/04/14 02:57:59;;;;;;;17.47;15.03;;;12.40;99.90;;;;;;5002376;28;20855;-71
2022/04/14 03:00:47;;;;;;;19.60;16.23;;;12.40;99.90;;;;;;4997330;28;20457;-72
2022/04/14 03:03:37;;;;;;;18.30;16.10;;;12.30;99.90;;;;;;4999849;28;20510;-72
2022/04/14 03:06:27;;;;;;;17.27;14.83;;;12.30;99.90;;;;;;4999279;28;20547;-72
2022/04/14 03:09:15;;;;;;;20.00;15.60;;;12.30;99.90;;;;;;4997407;28;20925;-71
2022/04/14 03:12:03;;;;;;;17.73;15.20;;;12.30;99.90;;;;;;4998605;28;20618;-72
2022/04/14 03:14:52;;;;;;;21.43;17.67;;;12.30;99.90;;;;;;4995987;28;21496;-72
2022/04/14 03:17:40;;;;;;;21.70;16.33;;;12.30;99.90;;;;;;4999845;28;20584;-72
2022/04/14 03:20:28;;;;;;;19.90;16.00;;;12.30;99.90;;;;;;4997804;28;21084;-72
2022/04/14 03:23:18;;;;;;;20.10;17.63;;;12.20;99.90;;;;;;4997729;28;20596;-72
2022/04/14 03:26:08;;;;;;;19.67;16.77;;;12.30;99.90;;;;;;4996404;28;20533;-71
2022/04/14 03:28:56;;;;;;;23.80;17.00;;;12.20;99.90;;;;;;4997115;28;20493;-72
2022/04/14 03:31:44;;;;;;;17.90;15.37;;;12.30;99.90;;;;;;4999506;28;20547;-72
2022/04/14 03:34:32;;;;;;;19.00;16.03;;;12.30;99.90;;;;;;4992777;28;20567;-72
2022/04/14 03:37:21;;;;;;;22.17;16.00;;;12.20;99.90;;;;;;4994854;28;20551;-72
2022/04/14 03:40:12;;;;;;;23.87;16.87;;;12.20;99.90;;;;;;4997201;28;20521;-72
2022/04/14 03:43:00;;;;;;;21.43;16.43;;;12.10;99.90;;;;;;4996319;28;20527;-72
2022/04/14 03:45:49;;;;;;;18.50;16.50;;;12.10;99.90;;;;;;4995729;28;20975;-72
2022/04/14 03:48:37;;;;;;;21.93;17.07;;;12.10;99.90;;;;;;5001401;28;20498;-72
2022/04/14 03:51:25;;;;;;;22.57;17.60;;;12.10;99.90;;;;;;4998398;28;20907;-72
2022/04/14 03:54:14;;;;;;;21.90;17.80;;;12.10;99.90;;;;;;4996036;28;20572;-72
2022/04/14 03:57:04;;;;;;;21.37;17.30;;;12.10;99.90;;;;;;5000723;28;20558;-72
2022/04/14 03:59:52;;;;;;;17.50;15.30;;;12.10;99.90;;;;;;5003255;28;20714;-72
2022/04/14 04:02:40;;;;;;;19.67;16.93;;;12.00;99.90;;;;;;5001459;28;22123;-71
2022/04/14 04:05:28;;;;;;;19.80;16.57;;;11.90;99.90;;;;;;5001730;28;20453;-71
2022/04/14 04:08:17;;;;;;;21.67;16.93;;;11.90;99.90;;;;;;4997176;28;20520;-72
2022/04/14 04:11:05;;;;;;;20.23;16.90;;;11.80;99.90;;;;;;4993931;28;20583;-71
2022/04/14 04:13:55;;;;;;;18.80;15.80;;;11.80;99.90;;;;;;5001560;28;20484;-72
2022/04/14 04:16:44;;;;;;;20.63;16.77;;;11.80;99.90;;;;;;4999796;28;20510;-71
2022/04/14 04:19:33;;;;;;;21.30;16.93;;;11.80;99.90;;;;;;4999433;28;20484;-72
2022/04/14 04:22:21;;;;;;;23.10;18.23;;;11.90;99.90;;;;;;4994660;28;20543;-72
2022/04/14 04:25:12;;;;;;;23.00;18.37;;;11.90;99.90;;;;;;4996129;28;20481;-72
2022/04/14 04:28:00;;;;;;;26.00;18.90;;;12.00;99.90;;;;;;4998435;28;20592;-72
2022/04/14 04:30:49;;;;;;;23.60;17.50;;;12.00;99.90;;;;;;4996954;28;21775;-72
2022/04/14 04:33:38;;;;;;;21.77;17.80;;;12.00;99.90;;;;;;4998266;28;20537;-71
2022/04/14 04:36:26;;;;;;;22.27;17.20;;;12.00;99.90;;;;;;4997413;28;20488;-71
2022/04/14 04:39:15;;;;;;;23.20;18.80;;;12.00;99.90;;;;;;4998130;28;21406;-71
2022/04/14 04:42:04;;;;;;;24.43;19.40;;;12.00;99.90;;;;;;4990353;28;20588;-71
2022/04/14 04:44:52;;;;;;;21.87;17.97;;;12.00;99.90;;;;;;4994367;28;20516;-72
2022/04/14 04:47:42;;;;;;;24.33;18.90;;;12.00;99.90;;;;;;4997728;28;20801;-72
2022/04/14 04:50:30;;;;;;;23.50;18.67;;;12.00;99.90;;;;;;4996300;28;20592;-71
2022/04/14 04:53:18;;;;;;;26.30;18.97;;;12.00;99.90;;;;;;4994308;28;20480;-71
2022/04/14 04:56:06;;;;;;;25.33;18.17;;;12.00;99.90;;;;;;4994018;28;20492;-71
2022/04/14 04:58:55;;;;;;;21.97;18.27;;;12.00;99.90;;;;;;4999293;28;20539;-72
2022/04/14 05:01:43;;;;;;;24.83;19.13;;;12.00;99.90;;;;;;4994553;28;21116;-72
2022/04/14 05:04:33;;;;;;;25.53;20.23;;;12.00;99.90;;;;;;4994068;28;20665;-72
2022/04/14 05:07:21;;;;;;;30.00;21.03;;;12.00;99.90;;;;;;4993418;28;20575;-72
2022/04/14 05:10:10;;;;;;;28.07;21.07;;;11.90;99.90;;;;;;4994603;28;21258;-72
2022/04/14 05:12:58;;;;;;;24.73;20.33;;;11.90;99.90;;;;;;4991044;28;20547;-72
2022/04/14 05:15:46;;;;;;;27.20;21.50;;;11.90;99.90;;;;;;4988285;28;20486;-72
2022/04/14 05:18:35;;;;;;;27.77;21.70;;;12.00;99.90;;;;;;4991342;28;20972;-72
2022/04/14 05:21:24;;;;;;;29.00;22.50;;;11.90;99.90;;;;;;4981598;28;20520;-72
2022/04/14 05:24:16;;;;;;;29.53;22.20;;;11.90;99.90;;;;;;4990630;28;20532;-72
2022/04/14 05:27:05;;;;;;;29.40;21.37;;;11.90;99.90;;;;;;5002859;28;20987;-72
2022/04/14 05:29:54;;;;;;;31.83;23.50;;;11.90;99.90;;;;;;4988175;28;20497;-73
2022/04/14 05:32:43;;;;;;;31.33;23.30;;;12.00;99.90;;;;;;4986775;28;21040;-72
2022/04/14 05:35:31;;;;;;;30.40;23.17;;;11.90;99.90;;;;;;4986080;28;21231;-72
2022/04/14 05:38:20;;;;;;;30.60;22.77;;;11.90;99.90;;;;;;4992966;28;20518;-72
2022/04/14 05:41:09;;;;;;;30.23;22.03;;;11.90;99.90;;;;;;4998107;28;21056;-72
2022/04/14 05:43:57;;;;;;;30.40;23.80;;;11.90;99.90;;;;;;4994465;28;21111;-72
2022/04/14 05:46:45;;;;;;;35.70;24.47;;;11.90;99.90;;;;;;4991833;28;20488;-72
2022/04/14 05:49:33;;;;;;;30.80;23.07;;;11.90;99.90;;;;;;4995441;28;20491;-72
2022/04/14 05:52:22;;;;;;;31.90;23.20;;;12.00;99.90;;;;;;4995317;28;20479;-73
2022/04/14 05:55:12;;;;;;;30.30;23.57;;;12.00;99.90;;;;;;4997800;28;20465;-71
2022/04/14 05:58:00;;;;;;;30.67;23.87;;;12.00;99.90;;;;;;4996492;28;21060;-71
2022/04/14 06:00:48;;;;;;;26.57;22.63;;;12.00;99.90;;;;;;5001707;28;20503;-72
2022/04/14 06:03:38;;;;;;;27.27;22.23;;;12.00;99.90;;;;;;4999156;28;20573;-72
2022/04/14 06:06:26;;;;;;;26.77;20.23;;;12.10;99.90;;;;;;4997280;28;20606;-71
2022/04/14 06:09:14;;;;;;;31.00;23.77;;;12.20;99.90;;;;;;4999838;28;20468;-71
2022/04/14 06:12:04;;;;;;;29.50;22.27;;;12.10;99.90;;;;;;4995872;28;20510;-72
2022/04/14 06:15:08;;;;;;;25.10;22.10;;;12.20;99.90;;;;;;4996067;28;21479;-72
2022/04/14 06:17:56;;;;;;;28.33;21.60;;;12.20;99.90;;;;;;4993361;28;20787;-71
2022/04/14 06:20:47;;;;;;;24.23;21.60;;;12.20;99.90;;;;;;5003853;28;20574;-72
2022/04/14 06:23:36;;;;;;;25.90;21.73;;;12.20;99.90;;;;;;4994912;28;20673;-72
2022/04/14 06:26:24;;;;;;;26.90;21.00;;;12.20;99.90;;;;;;5006868;28;20857;-72
2022/04/14 06:29:14;;;;;;;25.00;20.40;;;12.30;99.90;;;;;;5012679;28;20576;-71
2022/04/14 06:32:02;;;;;;;31.37;21.80;;;12.30;99.90;;;;;;5014277;28;21028;-72
2022/04/14 06:34:50;;;;;;;24.60;20.70;;;12.30;99.90;;;;;;5008608;28;20496;-71
2022/04/14 06:37:38;;;;;;;24.10;20.20;;;12.30;99.90;;;;;;5006876;28;20458;-72
2022/04/14 06:40:28;;;;;;;26.23;21.20;;;12.30;99.90;;;;;;4995034;28;20461;-72
2022/04/14 06:43:19;;;;;;;27.70;21.60;;;12.30;99.90;;;;;;5004319;28;20846;-71
2022/04/14 06:46:09;;;;;;;27.93;22.53;;;12.30;99.90;;;;;;5007907;28;20456;-71
2022/04/14 06:48:57;;;;;;;26.43;21.27;;;12.40;99.90;;;;;;4993789;28;20543;-72
2022/04/14 06:51:46;;;;;;;27.90;23.00;;;12.40;99.90;;;;;;4996188;28;20600;-72
2022/04/14 06:54:35;;;;;;;28.33;22.80;;;12.40;99.90;;;;;;4993768;28;20490;-72
2022/04/14 06:57:23;;;;;;;27.63;23.37;;;12.40;99.90;;;;;;4999230;28;20495;-71
2022/04/14 07:00:12;;;;;;;29.80;23.63;;;12.40;99.90;;;;;;4995254;28;20485;-72
2022/04/14 07:03:01;;;;;;;31.87;26.50;;;12.40;99.90;;;;;;4992231;28;20619;-71
2022/04/14 07:05:54;;;;;;;31.13;25.60;;;12.40;99.90;;;;;;4994847;28;20551;-71
2022/04/14 07:08:42;;;;;;;30.90;25.43;;;12.30;99.90;;;;;;5000361;28;20484;-72
2022/04/14 07:11:31;;;;;;;34.67;26.80;;;12.40;99.90;;;;;;5003716;28;20540;-72
2022/04/14 07:14:19;;;;;;;31.53;24.13;;;12.40;99.90;;;;;;5001734;28;20596;-71
2022/04/14 07:17:10;;;;;;;26.77;23.20;;;12.40;99.90;;;;;;5001309;28;20633;-73
2022/04/14 07:19:59;;;;;;;29.60;25.20;;;12.50;99.90;;;;;;5001496;28;20453;-71
2022/04/14 07:22:50;;;;;;;28.03;24.93;;;12.50;99.90;;;;;;5000743;28;20578;-72
2022/04/14 07:25:43;;;;;;;28.03;24.60;;;12.50;99.90;;;;;;5000637;28;20943;-71
2022/04/14 07:28:31;;;;;;;26.77;23.83;;;12.50;99.90;;;;;;4998842;28;20508;-71
2022/04/14 07:31:19;;;;;;;30.10;26.50;;;12.60;99.90;;;;;;5005797;28;20648;-72
2022/04/14 07:34:08;;;;;;;31.83;26.30;;;12.60;99.90;;;;;;5003725;28;20484;-71
2022/04/14 07:36:57;;;;;;;29.63;26.30;;;12.70;99.90;;;;;;5005420;28;20453;-72
2022/04/14 07:39:45;;;;;;;29.20;24.73;;;12.70;99.90;;;;;;5003080;28;21451;-71
2022/04/14 07:42:34;;;;;;;28.83;25.77;;;12.70;99.90;;;;;;5002611;28;20519;-72
2022/04/14 07:45:23;;;;;;;33.50;27.17;;;12.70;99.90;;;;;;5004536;28;20516;-71
2022/04/14 07:48:11;;;;;;;36.03;28.27;;;12.60;99.90;;;;;;4999877;28;20827;-73
2022/04/14 07:51:01;;;;;;;32.67;29.07;;;12.60;99.90;;;;;;5004201;28;21042;-71
2022/04/14 07:53:53;;;;;;;31.00;27.30;;;12.70;99.90;;;;;;5002037;28;20558;-71
2022/04/14 07:56:41;;;;;;;30.70;27.40;;;12.70;99.90;;;;;;5002876;28;20467;-71
2022/04/14 07:59:30;;;;;;;30.80;27.30;;;12.70;99.90;;;;;;5002511;28;20954;-71
2022/04/14 08:02:19;;;;;;;33.77;27.80;;;12.70;99.90;;;;;;5001065;28;20847;-71
2022/04/14 08:05:09;;;;;;;30.10;26.90;;;12.70;99.90;;;;;;5004315;28;20511;-71
2022/04/14 08:07:57;;;;;;;32.83;27.00;;;12.80;99.90;;;;;;4999603;28;20476;-73
2022/04/14 08:10:48;;;;;;;32.13;28.73;;;12.80;99.90;;;;;;5002903;28;21011;-72
2022/04/14 08:13:40;;;;;;;28.07;25.10;;;12.90;99.90;;;;;;5001922;28;21092;-72
2022/04/14 08:16:28;;;;;;;29.37;26.30;;;12.90;99.90;;;;;;5000995;28;20512;-71
2022/04/14 08:19:16;;;;;;;28.23;24.83;;;13.00;99.90;;;;;;4997913;28;20493;-72
2022/04/14 08:22:05;;;;;;;30.97;27.60;;;13.00;99.90;;;;;;5002738;28;20984;-71
2022/04/14 08:24:55;;;;;;;31.17;27.50;;;13.10;99.90;;;;;;4984959;28;21027;-72
2022/04/14 08:27:44;;;;;;;28.83;24.90;;;13.10;99.90;;;;;;4999015;28;20465;-72
2022/04/14 08:30:35;;;;;;;28.67;25.57;;;13.10;99.90;;;;;;4999475;28;20452;-72
2022/04/14 08:33:24;;;;;;;28.37;24.50;;;13.10;99.90;;;;;;5002587;28;20516;-72
2022/04/14 08:36:16;;;;;;;26.70;23.17;;;13.10;99.90;;;;;;5002111;28;20436;-72
2022/04/14 08:39:05;;;;;;;28.90;23.07;;;13.10;99.90;;;;;;5003236;28;20945;-72
2022/04/14 08:42:01;;;;;;;25.30;22.53;;;13.10;99.90;;;;;;5004861;28;20535;-72
2022/04/14 08:44:58;;;;;;;25.67;22.87;;;13.10;99.90;;;;;;4999520;28;21090;-71
2022/04/14 08:47:46;;;;;;;23.83;21.30;;;13.10;99.90;;;;;;4997986;28;20571;-72
2022/04/14 08:50:34;;;;;;;23.50;21.00;;;13.10;99.90;;;;;;4998975;28;20491;-72
2022/04/14 08:53:25;;;;;;;25.00;21.03;;;13.10;99.90;;;;;;5002062;28;20650;-72
2022/04/14 08:56:14;;;;;;;29.23;22.80;;;13.10;99.90;;;;;;5000430;28;20539;-72
2022/04/14 08:59:03;;;;;;;24.07;21.50;;;13.10;99.90;;;;;;4998816;28;20505;-72
2022/04/14 09:01:53;;;;;;;24.23;21.83;;;13.10;99.90;;;;;;5000681;28;20515;-71
2022/04/14 09:04:43;;;;;;;23.43;20.73;;;13.10;99.90;;;;;;5001738;28;20511;-72
2022/04/14 09:07:33;;;;;;;24.90;21.73;;;13.20;99.90;;;;;;4999556;28;20980;-72
2022/04/14 09:10:21;;;;;;;23.47;21.10;;;13.30;99.90;;;;;;5003146;28;20518;-72
2022/04/14 09:13:13;;;;;;;24.23;21.70;;;13.30;99.90;;;;;;5000045;28;20487;-71
2022/04/14 09:16:02;;;;;;;22.73;20.60;;;13.40;99.90;;;;;;4999914;28;20460;-71
2022/04/14 09:18:53;;;;;;;24.57;21.93;;;13.40;99.90;;;;;;5002637;28;20973;-71
2022/04/14 09:21:59;;;;;;;23.37;20.70;;;13.50;99.90;;;;;;4990718;28;20556;-72
2022/04/14 09:24:49;;;;;;;24.17;21.63;;;13.60;99.90;;;;;;5001599;28;20495;-72
2022/04/14 09:27:37;;;;;;;23.40;21.10;;;13.60;99.90;;;;;;5000666;28;20534;-72
2022/04/14 09:30:25;;;;;;;22.13;19.77;;;13.70;99.90;;;;;;5002761;28;20647;-72
2022/04/14 09:33:17;;;;;;;20.80;18.47;;;13.70;99.90;;;;;;5000754;28;20519;-71
2022/04/14 09:36:27;;;;;;;20.80;18.40;;;13.80;99.90;;;;;;4998642;28;20453;-70
2022/04/14 09:39:15;;;;;;;19.60;17.70;;;13.80;99.90;;;;;;5004550;28;20484;-71
2022/04/14 09:42:12;;;;;;;19.70;17.80;;;13.80;99.90;;;;;;5004242;28;20507;-72
2022/04/14 09:45:19;;;;;;;19.47;17.20;;;13.90;99.90;;;;;;5002267;28;20583;-72
2022/04/14 09:48:22;;;;;;;20.27;18.17;;;13.90;99.90;;;;;;5004276;28;20491;-72
2022/04/14 09:51:27;;;;;;;18.77;16.87;;;14.00;99.90;;;;;;5002449;28;20460;-72
2022/04/14 09:54:17;;;;;;;17.23;15.53;;;14.10;99.90;;;;;;4998202;28;20584;-72
2022/04/14 09:57:05;;;;;;;15.80;14.30;;;14.10;99.90;;;;;;5000652;28;20449;-72
2022/04/14 09:59:53;;;;;;;16.00;14.40;;;14.10;99.90;;;;;;4998720;28;20465;-72
2022/04/14 10:02:42;;;;;;;17.17;14.70;;;14.10;99.90;;;;;;4999862;28;20598;-72
2022/04/14 10:05:35;;;;;;;18.40;15.63;;;14.00;99.90;;;;;;4998485;28;20490;-72
2022/04/14 10:08:25;;;;;;;16.70;14.90;;;14.00;99.90;;;;;;5001630;28;20500;-72
2022/04/14 10:11:14;;;;;;;18.27;16.37;;;13.90;99.90;;;;;;5000609;28;20467;-72
2022/04/14 10:14:12;;;;;;;16.00;14.50;;;14.00;99.90;;;;;;4997930;28;20619;-72
2022/04/14 10:17:03;;;;;;;17.27;15.57;;;13.90;99.90;;;;;;4999318;28;20531;-72
2022/04/14 10:19:53;;;;;;;16.60;14.97;;;14.00;99.90;;;;;;4981122;28;20541;-71
2022/04/14 10:22:42;;;;;;;15.60;14.20;;;14.00;99.90;;;;;;4998954;28;20485;-72
2022/04/14 10:25:32;;;;;;;16.30;14.60;;;14.20;99.90;;;;;;5001250;28;20585;-72
2022/04/14 10:28:23;;;;;;;15.93;14.17;;;14.20;99.90;;;;;;5001093;28;20582;-72
2022/04/14 10:31:13;;;;;;;15.90;14.20;;;14.30;99.90;;;;;;5004442;28;20885;-72
2022/04/14 10:34:04;;;;;;;17.07;15.27;;;14.40;99.90;;;;;;5002850;28;20479;-72
2022/04/14 10:36:53;;;;;;;14.23;12.77;;;14.50;99.90;;;;;;5002588;28;20460;-71
2022/04/14 10:39:46;;;;;;;14.73;13.23;;;14.60;99.90;;;;;;5003552;28;20478;-72
2022/04/14 10:42:36;;;;;;;15.13;13.73;;;14.70;99.90;;;;;;5005341;28;20546;-72
2022/04/14 10:45:25;;;;;;;15.10;13.63;;;14.90;99.90;;;;;;5003964;28;20619;-73
2022/04/14 10:48:27;;;;;;;14.93;13.63;;;15.00;99.90;;;;;;5000748;28;20570;-72
2022/04/14 10:51:27;;;;;;;14.70;13.40;;;15.10;99.90;;;;;;4987361;28;20591;-72
2022/04/14 10:54:18;;;;;;;14.33;13.07;;;15.30;99.90;;;;;;4998437;28;20536;-72
2022/04/14 10:57:37;;;;;;;13.13;12.03;;;15.40;99.90;;;;;;5003372;28;20468;-69
2022/04/14 11:00:38;;;;;;;13.03;11.47;;;15.50;99.90;;;;;;4997326;28;20633;-70
2022/04/14 11:03:50;;;;;;;12.20;11.00;;;15.50;99.90;;;;;;4994299;28;20605;-70
2022/04/14 11:06:52;;;;;;;11.00;10.00;;;15.40;99.90;;;;;;4994499;28;20579;-70
2022/04/14 11:09:45;;;;;;;11.83;10.77;;;15.40;99.90;;;;;;4991456;28;20949;-70
2022/04/14 11:12:56;;;;;;;11.00;9.90;;;15.50;99.90;;;;;;4992843;28;20899;-72
2022/04/14 11:15:44;;;;;;;11.80;10.70;;;15.60;99.90;;;;;;4994469;28;20881;-72
2022/04/14 11:18:32;;;;;;;12.40;10.43;;;15.80;99.90;;;;;;4991633;28;20480;-72
2022/04/14 11:21:33;;;;;;;10.73;9.80;;;15.80;99.90;;;;;;4991973;28;20536;-72
2022/04/14 11:24:34;;;;;;;10.40;9.50;;;15.90;99.90;;;;;;4993152;28;20490;-71
2022/04/14 11:27:24;;;;;;;11.80;10.60;;;16.00;99.90;;;;;;4994742;28;20480;-71
2022/04/14 11:30:42;;;;;;;10.13;9.23;;;16.10;99.90;;;;;;4989070;28;20461;-74
2022/04/14 11:33:37;;;;;;;9.40;8.60;;;16.10;99.90;;;;;;4997665;28;20479;-74
2022/04/14 11:36:39;;;;;;;9.27;8.50;;;16.00;99.90;;;;;;5003870;28;20453;-75
2022/04/14 11:39:29;;;;;;;10.07;9.27;;;16.00;99.90;;;;;;4993334;28;20636;-71
2022/04/14 11:42:17;;;;;;;8.97;8.27;;;16.00;99.90;;;;;;5001715;28;20498;-71
2022/04/14 11:45:06;;;;;;;9.47;8.37;;;16.10;99.90;;;;;;5004062;28;20837;-73
2022/04/14 11:48:02;;;;;;;8.87;7.97;;;16.30;99.90;;;;;;5004169;28;20639;-72
2022/04/14 11:50:57;;;;;;;9.00;8.30;;;16.50;99.90;;;;;;5001856;28;20815;-72
2022/04/14 11:53:45;;;;;;;8.53;7.73;;;16.70;99.90;;;;;;5003111;28;20473;-73
2022/04/14 11:56:53;;;;;;;9.10;8.20;;;16.90;99.90;;;;;;4999762;28;20459;-72
2022/04/14 11:59:44;;;;;;;7.67;6.97;;;17.10;99.90;;;;;;5002543;28;20520;-74
2022/04/14 12:02:33;;;;;;;7.77;7.07;;;17.30;99.90;;;;;;5003700;28;20876;-72
2022/04/14 12:05:22;;;;;;;7.80;7.00;;;17.60;99.90;;;;;;5002781;28;21014;-74
2022/04/14 12:08:12;;;;;;;8.37;7.60;;;17.70;99.90;;;;;;5001751;28;20622;-72
2022/04/14 12:11:03;;;;;;;8.23;7.53;;;17.60;99.90;;;;;;5003376;28;20460;-73
2022/04/14 12:13:52;;;;;;;8.10;7.40;;;17.50;99.90;;;;;;5002254;28;21186;-75
2022/04/14 12:16:47;;;;;;;9.20;8.40;;;17.30;99.90;;;;;;5002917;28;20544;-74
2022/04/14 12:19:44;;;;;;;8.93;8.13;;;17.20;99.90;;;;;;5002015;28;20473;-73
2022/04/14 12:22:35;;;;;;;8.47;7.33;;;17.10;99.90;;;;;;4999803;28;20480;-75
2022/04/14 12:25:24;;;;;;;9.13;8.27;;;17.00;99.90;;;;;;5001597;28;20453;-71
2022/04/14 12:28:13;;;;;;;7.30;6.73;;;16.90;99.90;;;;;;5004220;28;20583;-71
2022/04/14 12:31:10;;;;;;;8.30;7.50;;;16.80;99.90;;;;;;5002446;28;20515;-72
2022/04/14 12:34:00;;;;;;;7.97;7.27;;;16.70;99.90;;;;;;4999072;28;20474;-72
2022/04/14 12:37:12;;;;;;;7.53;6.83;;;16.60;99.90;;;;;;4998126;28;20809;-72
2022/04/14 12:40:03;;;;;;;8.03;7.33;;;16.60;99.90;;;;;;5002138;28;20538;-73
2022/04/14 12:42:52;;;;;;;7.30;6.60;;;16.50;99.90;;;;;;4998811;28;20574;-71
2022/04/14 12:45:40;;;;;;;6.27;5.67;;;16.40;99.90;;;;;;4997379;28;20552;-70
2022/04/14 12:48:35;;;;;;;6.33;5.73;;;16.40;99.90;;;;;;4997259;28;20500;-71
2022/04/14 12:51:28;;;;;;;6.37;5.87;;;16.30;99.90;;;;;;4993507;28;20499;-69
2022/04/14 12:54:17;;;;;;;6.00;5.50;;;16.20;99.90;;;;;;4994022;28;20515;-69
2022/04/14 12:57:07;;;;;;;6.00;5.40;;;16.10;99.90;;;;;;4997999;28;20608;-71
2022/04/14 13:00:11;;;;;;;5.07;4.67;;;16.10;99.90;;;;;;4998204;28;20471;-72
2022/04/14 13:03:01;;;;;;;5.27;4.77;;;16.00;99.90;;;;;;4995239;28;20532;-73
2022/04/14 13:05:49;;;;;;;7.10;6.50;;;16.00;99.90;;;;;;4997366;28;20975;-73
2022/04/14 13:08:37;;;;;;;9.97;9.03;;;16.00;99.90;;;;;;4993207;28;20575;-74
2022/04/14 13:11:42;;;;;;;10.57;9.60;;;15.90;99.90;;;;;;4986691;28;20515;-73
2022/04/14 13:14:32;;;;;;;11.40;10.20;;;15.90;99.90;;;;;;4986485;28;20518;-73
2022/04/14 13:17:43;;;;;;;10.80;9.80;;;15.80;99.90;;;;;;4998535;28;20853;-74
2022/04/14 13:20:36;;;;;;;12.27;10.37;;;15.80;99.90;;;;;;5000583;28;20448;-74
2022/04/14 13:23:24;;;;;;;10.93;9.93;;;15.70;99.90;;;;;;5000157;28;20482;-74
2022/04/14 13:26:12;;;;;;;10.27;9.37;;;15.80;99.90;;;;;;5001228;28;20484;-73
2022/04/14 13:29:01;;;;;;;11.50;10.40;;;15.70;99.90;;;;;;5001562;28;20476;-73
2022/04/14 13:31:51;;;;;;;10.93;9.93;;;15.70;99.90;;;;;;4999706;28;20586;-73
2022/04/14 13:34:41;;;;;;;12.13;10.93;;;15.60;99.90;;;;;;5002847;28;20556;-73
2022/04/14 13:37:32;;;;;;;11.40;9.73;;;15.60;99.90;;;;;;4997746;28;20553;-73
2022/04/14 13:40:20;;;;;;;10.13;9.17;;;15.50;99.90;;;;;;5001095;28;20910;-72
2022/04/14 13:43:08;;;;;;;10.03;8.77;;;15.50;99.90;;;;;;4993954;28;20480;-73
2022/04/14 13:45:57;;;;;;;10.57;9.60;;;15.50;99.90;;;;;;4994376;28;20548;-73
2022/04/14 13:48:45;;;;;;;11.60;10.50;;;15.50;99.90;;;;;;4995539;28;20915;-73
2022/04/14 13:51:35;;;;;;;12.27;11.10;;;15.50;99.90;;;;;;4997544;28;21524;-73
2022/04/14 13:54:24;;;;;;;11.63;9.30;;;15.50;99.90;;;;;;4991323;28;20673;-73
2022/04/14 13:57:12;;;;;;;11.33;10.27;;;15.40;99.90;;;;;;4991859;28;20469;-72
2022/04/14 14:00:00;;;;;;;10.53;9.53;;;15.40;99.90;;;;;;4996301;28;20944;-72
2022/04/14 14:02:49;;;;;;;11.23;9.73;;;15.40;99.90;;;;;;4991868;28;20472;-72
2022/04/14 14:05:37;;;;;;;11.40;10.20;;;15.40;99.90;;;;;;4996951;28;20484;-72
2022/04/14 14:08:27;;;;;;;11.10;10.10;;;15.30;99.90;;;;;;4987153;28;21039;-72
2022/04/14 14:11:15;;;;;;;15.07;11.97;;;15.30;99.90;;;;;;4996155;28;20456;-72
2022/04/14 14:14:04;;;;;;;13.20;11.90;;;15.20;99.90;;;;;;4992400;28;20519;-72
2022/04/14 14:16:52;;;;;;;12.73;11.50;;;15.30;99.90;;;;;;4995633;28;20865;-73
2022/04/14 14:19:40;;;;;;;12.03;10.83;;;15.20;99.90;;;;;;5002721;28;20481;-73
2022/04/14 14:22:29;;;;;;;13.73;12.40;;;15.20;99.90;;;;;;4998749;28;21238;-72
2022/04/14 14:25:18;;;;;;;14.90;12.30;;;15.30;99.90;;;;;;5003059;28;20456;-74
2022/04/14 14:28:08;;;;;;;13.70;12.30;;;15.30;99.90;;;;;;5000086;28;20986;-73